createdAt,value
2018-09-01T00:00:29.868Z,18.20
2018-09-01T00:02:58.703Z,18.20
2018-09-01T00:05:27.292Z,18.20
2018-09-01T00:07:55.966Z,18.10
2018-09-01T00:10:24.648Z,18.10
2018-09-01T00:12:53.034Z,18.10
2018-09-01T00:15:21.371Z,18.10
2018-09-01T00:17:49.739Z,18.10
2018-09-01T00:20:18.164Z,18.10
2018-09-01T00:22:46.572Z,18.00
2018-09-01T00:25:14.924Z,18.00
2018-09-01T00:27:43.428Z,17.90
2018-09-01T00:30:11.779Z,17.90
2018-09-01T00:32:40.228Z,17.90
2018-09-01T00:35:08.604Z,17.80
2018-09-01T00:37:42.197Z,17.80
2018-09-01T00:40:10.627Z,17.70
2018-09-01T00:42:39.142Z,17.70
2018-09-01T00:45:07.647Z,17.70
2018-09-01T00:47:36.006Z,17.70
2018-09-01T00:50:04.501Z,17.60
2018-09-01T00:52:32.876Z,17.60
2018-09-01T00:55:01.727Z,17.50
2018-09-01T00:57:30.586Z,17.40
2018-09-01T00:59:59.291Z,17.40
2018-09-01T01:02:28.109Z,17.30
2018-09-01T01:04:56.703Z,17.20
2018-09-01T01:07:25.195Z,17.20
2018-09-01T01:09:54.037Z,17.20
2018-09-01T01:12:22.409Z,17.10
2018-09-01T01:14:50.765Z,17.10
2018-09-01T01:17:19.307Z,17.00
2018-09-01T01:19:48.007Z,17.00
2018-09-01T01:22:17.342Z,16.90
2018-09-01T01:24:46.658Z,16.90
2018-09-01T01:27:16.070Z,16.80
2018-09-01T01:29:45.023Z,16.80
2018-09-01T01:32:13.801Z,16.80
2018-09-01T01:34:42.512Z,16.70
2018-09-01T01:37:11.323Z,16.70
2018-09-01T01:39:39.785Z,16.60
2018-09-01T01:42:08.258Z,16.60
2018-09-01T01:44:36.739Z,16.60
2018-09-01T01:47:05.490Z,16.50
2018-09-01T01:49:34.896Z,16.50
2018-09-01T01:52:04.545Z,16.50
2018-09-01T01:54:34.127Z,16.40
2018-09-01T01:57:03.627Z,16.30
2018-09-01T01:59:33.669Z,16.30
2018-09-01T02:02:02.957Z,16.30
2018-09-01T02:04:32.569Z,16.20
2018-09-01T02:07:00.954Z,16.20
2018-09-01T02:09:29.346Z,16.20
2018-09-01T02:11:57.733Z,16.20
2018-09-01T02:14:26.122Z,16.10
2018-09-01T02:16:54.566Z,16.10
2018-09-01T02:19:22.954Z,16.00
2018-09-01T02:21:51.309Z,16.00
2018-09-01T02:24:19.670Z,16.00
2018-09-01T02:26:48.132Z,15.90
2018-09-01T02:29:16.482Z,15.90
2018-09-01T02:31:44.838Z,15.90
2018-09-01T02:34:13.222Z,15.90
2018-09-01T02:36:41.934Z,15.80
2018-09-01T02:39:10.278Z,15.80
2018-09-01T02:41:38.659Z,15.70
2018-09-01T02:44:07.910Z,15.70
2018-09-01T02:46:36.263Z,15.70
2018-09-01T02:49:04.683Z,15.70
2018-09-01T02:51:33.177Z,15.60
2018-09-01T02:54:01.586Z,15.60
2018-09-01T02:56:29.975Z,15.60
2018-09-01T02:58:58.330Z,15.50
2018-09-01T03:01:32.231Z,15.50
2018-09-01T03:04:00.751Z,15.50
2018-09-01T03:06:39.092Z,15.60
2018-09-01T03:09:07.725Z,15.60
2018-09-01T03:11:36.128Z,15.50
2018-09-01T03:14:04.490Z,15.50
2018-09-01T03:16:32.985Z,15.50
2018-09-01T03:19:01.529Z,15.40
2018-09-01T03:21:29.879Z,15.40
2018-09-01T03:23:58.308Z,15.40
2018-09-01T03:26:26.925Z,15.40
2018-09-01T03:28:55.299Z,15.40
2018-09-01T03:31:23.720Z,15.30
2018-09-01T03:33:52.320Z,15.30
2018-09-01T03:36:21.030Z,15.20
2018-09-01T03:38:49.644Z,15.20
2018-09-01T03:41:18.098Z,15.20
2018-09-01T03:43:46.501Z,15.20
2018-09-01T03:46:14.885Z,15.10
2018-09-01T03:48:43.441Z,15.10
2018-09-01T03:51:11.935Z,15.10
2018-09-01T03:53:40.605Z,15.00
2018-09-01T03:56:09.103Z,15.00
2018-09-01T03:58:37.562Z,15.00
2018-09-01T04:01:05.983Z,15.00
2018-09-01T04:03:34.491Z,15.00
2018-09-01T04:06:03.021Z,14.90
2018-09-01T04:08:31.489Z,14.90
2018-09-01T04:11:00.032Z,14.80
2018-09-01T04:13:28.617Z,14.80
2018-09-01T04:15:57.204Z,14.70
2018-09-01T04:18:32.074Z,14.70
2018-09-01T04:21:00.740Z,14.70
2018-09-01T04:23:29.521Z,14.70
2018-09-01T04:25:58.387Z,14.60
2018-09-01T04:28:27.079Z,14.60
2018-09-01T04:30:56.937Z,14.50
2018-09-01T04:33:25.975Z,14.50
2018-09-01T04:35:54.796Z,14.40
2018-09-01T04:38:23.153Z,14.40
2018-09-01T04:40:51.806Z,14.40
2018-09-01T04:43:20.312Z,14.30
2018-09-01T04:45:48.999Z,14.40
2018-09-01T04:48:17.932Z,14.30
2018-09-01T04:50:46.994Z,14.30
2018-09-01T04:53:15.949Z,14.30
2018-09-01T04:55:44.621Z,14.30
2018-09-01T04:58:13.661Z,14.30
2018-09-01T05:00:42.546Z,14.30
2018-09-01T05:03:10.977Z,14.30
2018-09-01T05:05:39.503Z,14.30
2018-09-01T05:08:08.041Z,14.30
2018-09-01T05:10:36.415Z,14.30
2018-09-01T05:13:04.925Z,14.30
2018-09-01T05:15:33.332Z,14.20
2018-09-01T05:18:01.709Z,14.30
2018-09-01T05:20:30.061Z,14.20
2018-09-01T05:22:58.796Z,14.20
2018-09-01T05:25:27.802Z,14.20
2018-09-01T05:27:56.374Z,14.20
2018-09-01T05:30:25.234Z,14.20
2018-09-01T05:32:54.225Z,14.20
2018-09-01T05:35:22.670Z,14.30
2018-09-01T05:37:51.050Z,14.30
2018-09-01T05:40:19.496Z,14.30
2018-09-01T05:42:47.990Z,14.30
2018-09-01T05:45:16.623Z,14.40
2018-09-01T05:47:44.972Z,14.40
2018-09-01T05:50:13.330Z,14.50
2018-09-01T05:52:41.761Z,14.50
2018-09-01T05:55:10.135Z,14.60
2018-09-01T05:57:38.554Z,14.70
2018-09-01T06:00:08.110Z,14.70
2018-09-01T06:02:36.567Z,14.70
2018-09-01T06:05:06.183Z,14.70
2018-09-01T06:07:34.972Z,14.80
2018-09-01T06:10:03.999Z,14.80
2018-09-01T06:12:32.587Z,14.90
2018-09-01T06:15:01.188Z,14.90
2018-09-01T06:17:29.588Z,14.90
2018-09-01T06:19:57.874Z,15.00
2018-09-01T06:22:26.263Z,15.00
2018-09-01T06:24:54.668Z,15.10
2018-09-01T06:27:58.679Z,15.20
2018-09-01T06:30:30.414Z,15.20
2018-09-01T06:32:59.234Z,15.30
2018-09-01T06:35:27.540Z,15.30
2018-09-01T06:37:55.943Z,15.40
2018-09-01T06:40:24.464Z,15.50
2018-09-01T06:42:54.121Z,15.60
2018-09-01T06:45:22.837Z,15.70
2018-09-01T06:47:51.275Z,15.80
2018-09-01T06:50:19.631Z,15.90
2018-09-01T06:52:48.584Z,16.00
2018-09-01T06:55:16.969Z,16.20
2018-09-01T06:57:45.414Z,16.20
2018-09-01T07:00:13.853Z,16.40
2018-09-01T07:02:42.326Z,16.40
2018-09-01T07:05:10.707Z,16.60
2018-09-01T07:07:39.323Z,16.70
2018-09-01T07:10:07.787Z,16.80
2018-09-01T07:12:36.186Z,16.90
2018-09-01T07:15:04.645Z,17.00
2018-09-01T07:17:33.067Z,17.10
2018-09-01T07:20:01.522Z,17.20
2018-09-01T07:22:29.927Z,17.30
2018-09-01T07:24:58.303Z,17.40
2018-09-01T07:27:26.752Z,17.50
2018-09-01T07:29:55.259Z,17.50
2018-09-01T07:32:23.938Z,17.70
2018-09-01T07:34:52.501Z,17.80
2018-09-01T07:37:20.921Z,17.90
2018-09-01T07:39:49.271Z,18.00
2018-09-01T07:42:17.891Z,18.10
2018-09-01T07:44:46.403Z,18.20
2018-09-01T07:47:14.855Z,18.20
2018-09-01T07:49:43.293Z,18.30
2018-09-01T07:52:11.746Z,18.40
2018-09-01T07:54:40.478Z,18.50
2018-09-01T07:57:08.778Z,18.60
2018-09-01T07:59:37.298Z,18.70
2018-09-01T08:02:05.791Z,18.70
2018-09-01T08:04:34.258Z,18.70
2018-09-01T08:07:02.659Z,18.70
2018-09-01T08:09:31.890Z,18.80
2018-09-01T08:12:00.322Z,18.90
2018-09-01T08:14:28.787Z,18.90
2018-09-01T08:16:57.402Z,19.00
2018-09-01T08:19:25.950Z,19.00
2018-09-01T08:21:54.373Z,19.10
2018-09-01T08:24:22.796Z,19.20
2018-09-01T08:26:51.533Z,19.20
2018-09-01T08:29:20.171Z,19.30
2018-09-01T08:31:48.673Z,19.30
2018-09-01T08:34:17.047Z,19.30
2018-09-01T08:36:45.399Z,19.30
2018-09-01T08:39:13.752Z,19.30
2018-09-01T08:41:42.131Z,19.20
2018-09-01T08:44:10.498Z,19.30
2018-09-01T08:46:38.975Z,19.30
2018-09-01T08:49:07.443Z,19.40
2018-09-01T08:51:35.847Z,19.50
2018-09-01T08:54:04.204Z,19.60
2018-09-01T08:56:32.614Z,19.80
2018-09-01T08:59:01.003Z,19.90
2018-09-01T09:01:29.516Z,20.10
2018-09-01T09:03:57.938Z,20.20
2018-09-01T09:06:26.311Z,20.30
2018-09-01T09:08:54.907Z,20.50
2018-09-01T09:11:23.478Z,20.60
2018-09-01T09:13:52.011Z,20.80
2018-09-01T09:16:20.424Z,20.70
2018-09-01T09:18:48.985Z,20.80
2018-09-01T09:21:17.481Z,20.80
2018-09-01T09:23:45.847Z,20.90
2018-09-01T09:26:14.432Z,21.00
2018-09-01T09:28:43.019Z,21.10
2018-09-01T09:31:11.486Z,21.20
2018-09-01T09:33:39.968Z,21.40
2018-09-01T09:36:08.480Z,21.50
2018-09-01T09:38:37.100Z,21.50
2018-09-01T09:41:06.184Z,21.50
2018-09-01T09:43:35.133Z,21.50
2018-09-01T09:46:03.685Z,21.60
2018-09-01T09:48:32.539Z,21.60
2018-09-01T09:51:01.187Z,21.60
2018-09-01T09:53:29.946Z,21.70
2018-09-01T09:55:58.544Z,21.70
2018-09-01T09:58:27.437Z,21.80
2018-09-01T10:00:57.058Z,21.80
2018-09-01T10:03:25.494Z,21.90
2018-09-01T10:05:54.257Z,21.90
2018-09-01T10:08:22.946Z,22.00
2018-09-01T10:10:52.121Z,22.00
2018-09-01T10:13:20.522Z,22.00
2018-09-01T10:15:49.145Z,21.90
2018-09-01T10:18:17.587Z,21.90
2018-09-01T10:20:46.048Z,21.80
2018-09-01T10:23:14.673Z,21.80
2018-09-01T10:25:43.442Z,21.70
2018-09-01T10:28:11.973Z,21.60
2018-09-01T10:30:40.660Z,21.60
2018-09-01T10:33:09.248Z,21.60
2018-09-01T10:35:37.751Z,21.70
2018-09-01T10:38:06.574Z,21.70
2018-09-01T10:40:35.729Z,21.60
2018-09-01T10:43:04.231Z,21.60
2018-09-01T10:45:32.966Z,21.60
2018-09-01T10:48:01.602Z,21.60
2018-09-01T10:50:30.335Z,21.50
2018-09-01T10:52:58.827Z,21.50
2018-09-01T10:55:27.495Z,21.50
2018-09-01T10:57:55.940Z,21.50
2018-09-01T11:00:24.473Z,21.60
2018-09-01T11:02:54.060Z,21.70
2018-09-01T11:05:23.517Z,21.90
2018-09-01T11:10:21.172Z,22.50
2018-09-01T11:12:49.640Z,22.80
2018-09-01T11:15:18.223Z,23.10
2018-09-01T11:17:46.702Z,23.40
2018-09-01T11:20:15.384Z,23.70
2018-09-01T11:22:43.984Z,23.90
2018-09-01T11:25:12.541Z,23.90
2018-09-01T11:27:41.291Z,23.90
2018-09-01T11:30:10.967Z,23.80
2018-09-01T11:32:39.361Z,23.80
2018-09-01T11:35:08.246Z,23.80
2018-09-01T11:37:36.810Z,23.80
2018-09-01T11:40:05.792Z,23.80
2018-09-01T11:42:34.667Z,23.80
2018-09-01T11:45:03.360Z,23.60
2018-09-01T11:47:31.925Z,23.60
2018-09-01T11:50:00.864Z,23.70
2018-09-01T11:52:29.748Z,23.80
2018-09-01T11:54:58.372Z,23.90
2018-09-01T11:57:26.996Z,23.90
2018-09-01T11:59:55.811Z,24.00
2018-09-01T12:02:24.291Z,24.00
2018-09-01T12:04:52.792Z,24.10
2018-09-01T12:07:21.522Z,24.20
2018-09-01T12:09:50.315Z,24.20
2018-09-01T12:12:18.855Z,24.30
2018-09-01T12:14:47.342Z,24.30
2018-09-01T12:17:15.967Z,24.30
2018-09-01T12:19:44.347Z,24.50
2018-09-01T12:22:12.872Z,24.80
2018-09-01T12:24:41.375Z,25.10
2018-09-01T12:27:09.942Z,25.40
2018-09-01T12:29:38.332Z,25.70
2018-09-01T12:32:07.217Z,26.00
2018-09-01T12:34:35.647Z,26.30
2018-09-01T12:37:04.377Z,26.40
2018-09-01T12:39:32.786Z,26.50
2018-09-01T12:42:01.857Z,26.60
2018-09-01T12:44:31.191Z,26.70
2018-09-01T12:46:59.946Z,26.90
2018-09-01T12:49:28.342Z,27.00
2018-09-01T12:51:56.826Z,27.10
2018-09-01T12:54:25.336Z,27.20
2018-09-01T12:56:53.775Z,27.20
2018-09-01T12:59:22.749Z,27.30
2018-09-01T13:01:51.084Z,27.40
2018-09-01T13:04:20.811Z,27.60
2018-09-01T13:06:50.290Z,27.90
2018-09-01T13:09:19.056Z,27.70
2018-09-01T13:11:48.216Z,27.50
2018-09-01T13:14:17.255Z,27.10
2018-09-01T13:16:46.480Z,26.80
2018-09-01T13:19:15.855Z,26.50
2018-09-01T13:21:45.630Z,26.20
2018-09-01T13:24:15.271Z,26.00
2018-09-01T13:26:44.733Z,26.10
2018-09-01T13:29:13.925Z,26.30
2018-09-01T13:31:43.312Z,26.60
2018-09-01T13:34:12.629Z,26.80
2018-09-01T13:36:42.459Z,27.10
2018-09-01T13:39:11.947Z,27.30
2018-09-01T13:41:41.727Z,27.50
2018-09-01T13:44:11.310Z,27.70
2018-09-01T13:46:40.464Z,27.90
2018-09-01T13:49:09.811Z,28.10
2018-09-01T13:51:39.482Z,28.30
2018-09-01T13:54:08.485Z,28.30
2018-09-01T13:56:38.036Z,28.20
2018-09-01T13:59:07.456Z,28.20
2018-09-01T14:01:36.389Z,28.20
2018-09-01T14:04:06.109Z,28.40
2018-09-01T14:06:35.207Z,28.50
2018-09-01T14:09:05.618Z,28.60
2018-09-01T14:11:34.182Z,28.50
2018-09-01T14:14:02.672Z,28.40
2018-09-01T14:16:31.438Z,28.30
2018-09-01T14:18:59.967Z,28.10
2018-09-01T14:21:28.369Z,27.80
2018-09-01T14:23:56.812Z,27.40
2018-09-01T14:26:25.168Z,27.10
2018-09-01T14:28:53.640Z,26.80
2018-09-01T14:31:22.035Z,26.50
2018-09-01T14:33:50.638Z,26.30
2018-09-01T14:36:19.130Z,26.10
2018-09-01T14:38:47.511Z,25.80
2018-09-01T14:41:15.867Z,25.60
2018-09-01T14:43:44.334Z,25.50
2018-09-01T14:46:13.109Z,25.40
2018-09-01T14:48:41.513Z,25.40
2018-09-01T14:51:10.222Z,25.50
2018-09-01T14:53:38.601Z,25.70
2018-09-01T14:56:07.296Z,26.00
2018-09-01T14:58:36.731Z,26.30
2018-09-01T15:01:05.390Z,26.50
2018-09-01T15:03:33.816Z,26.60
2018-09-01T15:06:02.413Z,26.80
2018-09-01T15:08:31.275Z,27.00
2018-09-01T15:10:59.790Z,27.20
2018-09-01T15:13:28.220Z,27.40
2018-09-01T15:15:56.611Z,27.50
2018-09-01T15:18:25.064Z,27.60
2018-09-01T15:20:53.437Z,27.60
2018-09-01T15:23:21.858Z,27.60
2018-09-01T15:25:50.335Z,27.40
2018-09-01T15:28:18.762Z,27.10
2018-09-01T15:30:47.293Z,26.90
2018-09-01T15:33:15.840Z,26.70
2018-09-01T15:35:44.359Z,26.50
2018-09-01T15:38:12.729Z,26.30
2018-09-01T15:40:41.377Z,26.10
2018-09-01T15:43:09.794Z,25.90
2018-09-01T15:45:38.430Z,25.80
2018-09-01T15:48:07.536Z,25.60
2018-09-01T15:50:36.473Z,25.40
2018-09-01T15:53:05.552Z,25.30
2018-09-01T15:55:34.231Z,25.20
2018-09-01T15:58:03.922Z,25.10
2018-09-01T16:00:32.607Z,25.00
2018-09-01T16:03:01.619Z,24.90
2018-09-01T16:05:30.740Z,24.90
2018-09-01T16:07:59.475Z,24.90
2018-09-01T16:10:28.407Z,25.00
2018-09-01T16:12:57.807Z,25.20
2018-09-01T16:15:27.884Z,25.30
2018-09-01T16:17:56.998Z,25.40
2018-09-01T16:20:25.797Z,25.50
2018-09-01T16:22:54.916Z,25.60
2018-09-01T16:25:23.591Z,25.70
2018-09-01T16:27:52.302Z,25.70
2018-09-01T16:30:20.944Z,25.80
2018-09-01T16:32:49.948Z,25.90
2018-09-01T16:35:19.190Z,26.00
2018-09-01T16:37:48.940Z,26.00
2018-09-01T16:40:17.694Z,26.00
2018-09-01T16:42:46.351Z,26.00
2018-09-01T16:45:15.197Z,26.00
2018-09-01T16:47:44.236Z,26.00
2018-09-01T16:50:14.445Z,26.00
2018-09-01T16:52:44.563Z,25.90
2018-09-01T16:55:14.572Z,25.90
2018-09-01T16:57:44.604Z,25.80
2018-09-01T17:00:14.981Z,25.80
2018-09-01T17:02:45.386Z,25.70
2018-09-01T17:05:15.551Z,25.60
2018-09-01T17:07:45.573Z,25.60
2018-09-01T17:10:15.632Z,25.60
2018-09-01T17:12:45.421Z,25.40
2018-09-01T17:15:15.450Z,25.30
2018-09-01T17:17:45.180Z,25.20
2018-09-01T17:20:14.966Z,25.10
2018-09-01T17:22:44.381Z,25.00
2018-09-01T17:25:14.195Z,24.90
2018-09-01T17:27:44.121Z,24.90
2018-09-01T17:30:13.706Z,24.80
2018-09-01T17:32:43.645Z,24.70
2018-09-01T17:35:13.357Z,24.60
2018-09-01T17:37:43.264Z,24.50
2018-09-01T17:40:12.502Z,24.40
2018-09-01T17:42:42.081Z,24.20
2018-09-01T17:45:10.991Z,24.10
2018-09-01T17:47:40.228Z,24.00
2018-09-01T17:50:09.468Z,23.90
2018-09-01T17:52:39.587Z,23.70
2018-09-01T17:55:08.991Z,23.60
2018-09-01T17:57:38.229Z,23.50
2018-09-01T18:00:07.184Z,23.40
2018-09-01T18:02:36.525Z,23.40
2018-09-01T18:05:05.410Z,23.20
2018-09-01T18:07:34.207Z,23.20
2018-09-01T18:10:03.102Z,23.10
2018-09-01T18:12:31.648Z,23.00
2018-09-01T18:15:00.103Z,22.90
2018-09-01T18:17:31.208Z,22.80
2018-09-01T18:19:59.628Z,22.70
2018-09-01T18:22:28.216Z,22.70
2018-09-01T18:24:56.694Z,22.60
2018-09-01T18:27:25.157Z,22.50
2018-09-01T18:29:53.584Z,22.50
2018-09-01T18:32:22.000Z,22.40
2018-09-01T18:34:50.435Z,22.40
2018-09-01T18:37:19.209Z,22.30
2018-09-01T18:39:47.745Z,22.20
2018-09-01T18:42:16.370Z,22.20
2018-09-01T18:44:45.221Z,22.10
2018-09-01T18:47:13.795Z,22.00
2018-09-01T18:49:42.321Z,22.00
2018-09-01T18:52:10.944Z,21.90
2018-09-01T18:54:39.550Z,21.90
2018-09-01T18:57:08.064Z,21.80
2018-09-01T18:59:36.769Z,21.80
2018-09-01T19:02:05.351Z,21.70
2018-09-01T19:04:34.044Z,21.70
2018-09-01T19:07:02.733Z,21.60
2018-09-01T19:09:31.457Z,21.60
2018-09-01T19:12:00.142Z,21.50
2018-09-01T19:14:28.737Z,21.50
2018-09-01T19:16:57.270Z,21.50
2018-09-01T19:19:26.001Z,21.50
2018-09-01T19:21:54.554Z,21.40
2018-09-01T19:24:23.138Z,21.40
2018-09-01T19:26:51.520Z,21.40
2018-09-01T19:29:20.181Z,21.30
2018-09-01T19:31:48.794Z,21.30
2018-09-01T19:34:17.536Z,21.30
2018-09-01T19:36:46.127Z,21.30
2018-09-01T19:39:14.570Z,21.30
2018-09-01T19:41:43.662Z,21.30
2018-09-01T19:44:12.136Z,21.30
2018-09-01T19:46:40.670Z,21.20
2018-09-01T19:49:09.378Z,21.10
2018-09-01T19:51:37.941Z,21.00
2018-09-01T19:54:06.664Z,21.00
2018-09-01T19:56:35.410Z,20.90
2018-09-01T19:59:04.100Z,20.90
2018-09-01T20:01:32.650Z,20.90
2018-09-01T20:04:01.516Z,20.80
2018-09-01T20:06:30.143Z,20.80
2018-09-01T20:08:58.663Z,20.80
2018-09-01T20:11:27.138Z,20.80
2018-09-01T20:13:55.732Z,20.70
2018-09-01T20:16:24.139Z,20.70
2018-09-01T20:18:52.839Z,20.60
2018-09-01T20:21:21.262Z,20.60
2018-09-01T20:23:49.751Z,20.50
2018-09-01T20:26:18.219Z,20.50
2018-09-01T20:28:46.684Z,20.40
2018-09-01T20:31:15.248Z,20.40
2018-09-01T20:33:44.532Z,20.40
2018-09-01T20:36:20.048Z,20.30
2018-09-01T20:38:48.702Z,20.30
2018-09-01T20:41:17.343Z,20.20
2018-09-01T20:43:45.794Z,20.20
2018-09-01T20:46:14.187Z,20.20
2018-09-01T20:48:42.699Z,20.10
2018-09-01T20:51:11.282Z,20.10
2018-09-01T20:53:40.014Z,20.10
2018-09-01T20:56:08.501Z,20.10
2018-09-01T20:58:37.049Z,20.10
2018-09-01T21:01:05.576Z,20.10
2018-09-01T21:03:34.187Z,20.10
2018-09-01T21:06:02.625Z,20.00
2018-09-01T21:08:31.163Z,20.00
2018-09-01T21:10:59.629Z,20.00
2018-09-01T21:13:28.332Z,20.00
2018-09-01T21:15:56.824Z,19.90
2018-09-01T21:18:25.310Z,19.90
2018-09-01T21:20:53.900Z,19.90
2018-09-01T21:23:22.444Z,19.80
2018-09-01T21:25:51.202Z,19.80
2018-09-01T21:28:19.968Z,19.70
2018-09-01T21:30:48.514Z,19.70
2018-09-01T21:33:16.987Z,19.70
2018-09-01T21:35:45.365Z,19.60
2018-09-01T21:38:13.790Z,19.60
2018-09-01T21:40:42.272Z,19.60
2018-09-01T21:43:10.897Z,19.60
2018-09-01T21:45:39.331Z,19.50
2018-09-01T21:48:07.787Z,19.50
2018-09-01T21:50:36.291Z,19.50
2018-09-01T21:53:04.801Z,19.40
2018-09-01T21:55:33.315Z,19.40
2018-09-01T21:58:01.806Z,19.40
2018-09-01T22:00:30.244Z,19.40
2018-09-01T22:02:58.627Z,19.30
2018-09-01T22:05:26.999Z,19.30
2018-09-01T22:07:55.672Z,19.20
2018-09-01T22:10:24.191Z,19.20
2018-09-01T22:12:52.885Z,19.20
2018-09-01T22:15:21.371Z,19.10
2018-09-01T22:17:49.830Z,19.10
2018-09-01T22:20:18.471Z,19.00
2018-09-01T22:22:47.007Z,19.00
2018-09-01T22:25:15.628Z,19.00
2018-09-01T22:27:44.414Z,19.00
2018-09-01T22:30:13.341Z,19.00
2018-09-01T22:32:41.949Z,19.00
2018-09-01T22:35:10.546Z,18.90
2018-09-01T22:37:39.187Z,18.90
2018-09-01T22:40:07.870Z,18.90
2018-09-01T22:42:36.406Z,18.90
2018-09-01T22:45:05.462Z,18.80
2018-09-01T22:47:35.189Z,18.80
2018-09-01T22:50:03.734Z,18.80
2018-09-01T22:52:32.332Z,18.80
2018-09-01T22:55:00.754Z,18.80
2018-09-01T22:57:29.166Z,18.70
2018-09-01T22:59:57.589Z,18.70
2018-09-01T23:02:26.032Z,18.60
2018-09-01T23:04:54.654Z,18.60
2018-09-01T23:07:23.111Z,18.60
2018-09-01T23:09:51.613Z,18.60
2018-09-01T23:12:20.551Z,18.50
2018-09-01T23:14:49.508Z,18.50
2018-09-01T23:17:17.927Z,18.40
2018-09-01T23:19:46.541Z,18.40
2018-09-01T23:22:15.159Z,18.40
2018-09-01T23:24:44.101Z,18.40
2018-09-01T23:27:12.992Z,18.40
2018-09-01T23:29:41.450Z,18.40
2018-09-01T23:32:09.913Z,18.40
2018-09-01T23:34:38.600Z,18.30
2018-09-01T23:37:07.397Z,18.30
2018-09-01T23:39:35.878Z,18.30
2018-09-01T23:42:04.714Z,18.30
2018-09-01T23:44:33.785Z,18.20
2018-09-01T23:47:02.956Z,18.20
2018-09-01T23:49:32.165Z,18.10
2018-09-01T23:52:01.228Z,18.10
2018-09-01T23:54:29.974Z,18.10
2018-09-01T23:56:58.660Z,18.10
2018-09-01T23:59:27.485Z,18.10
